sensor_id;sensor_type;location;lat;lon;timestamp;temperature;humidity
28773;DHT22;15925;51.222;5.678;2022-12-05T00:00:17;3.80;99.90
28773;DHT22;15925;51.222;5.678;2022-12-05T00:02:43;3.80;99.90
28773;DHT22;15925;51.222;5.678;2022-12-05T00:05:10;3.90;99.90
28773;DHT22;15925;51.222;5.678;2022-12-05T00:07:37;3.80;99.90
28773;DHT22;15925;51.222;5.678;2022-12-05T00:10:04;4.00;99.90
28773;DHT22;15925;51.222;5.678;2022-12-05T00:12:30;3.90;99.90
28773;DHT22;15925;51.222;5.678;2022-12-05T00:14:56;3.90;99.90
28773;DHT22;15925;51.222;5.678;2022-12-05T00:17:22;3.90;99.90
28773;DHT22;15925;51.222;5.678;2022-12-05T00:19:48;3.90;99.90
28773;DHT22;15925;51.222;5.678;2022-12-05T00:22:13;3.90;99.90
28773;DHT22;15925;51.222;5.678;2022-12-05T00:24:39;3.80;99.90
28773;DHT22;15925;51.222;5.678;2022-12-05T00:27:05;3.80;99.90
28773;DHT22;15925;51.222;5.678;2022-12-05T00:29:31;3.80;99.90
28773;DHT22;15925;51.222;5.678;2022-12-05T00:31:56;3.90;99.90
28773;DHT22;15925;51.222;5.678;2022-12-05T00:34:22;3.90;99.90
28773;DHT22;15925;51.222;5.678;2022-12-05T00:36:48;3.90;99.90
28773;DHT22;15925;51.222;5.678;2022-12-05T00:39:14;3.90;99.90
28773;DHT22;15925;51.222;5.678;2022-12-05T00:41:41;4.00;99.90
28773;DHT22;15925;51.222;5.678;2022-12-05T00:44:08;3.90;99.90
28773;DHT22;15925;51.222;5.678;2022-12-05T00:46:35;3.90;99.90
28773;DHT22;15925;51.222;5.678;2022-12-05T00:49:03;3.90;99.90
28773;DHT22;15925;51.222;5.678;2022-12-05T00:51:32;3.90;99.90
28773;DHT22;15925;51.222;5.678;2022-12-05T00:54:00;4.00;99.90
28773;DHT22;15925;51.222;5.678;2022-12-05T00:56:28;4.00;99.90
28773;DHT22;15925;51.222;5.678;2022-12-05T00:58:55;4.10;99.90
28773;DHT22;15925;51.222;5.678;2022-12-05T01:01:25;4.10;99.90
28773;DHT22;15925;51.222;5.678;2022-12-05T01:03:53;4.10;99.90
28773;DHT22;15925;51.222;5.678;2022-12-05T01:06:19;4.00;99.90
28773;DHT22;15925;51.222;5.678;2022-12-05T01:08:45;4.00;99.90
28773;DHT22;15925;51.222;5.678;2022-12-05T01:11:14;4.10;99.90
28773;DHT22;15925;51.222;5.678;2022-12-05T01:13:40;4.10;99.90
28773;DHT22;15925;51.222;5.678;2022-12-05T01:16:22;4.10;99.90
28773;DHT22;15925;51.222;5.678;2022-12-05T01:18:48;4.00;99.90
28773;DHT22;15925;51.222;5.678;2022-12-05T01:21:14;4.10;99.90
28773;DHT22;15925;51.222;5.678;2022-12-05T01:23:40;4.00;99.90
28773;DHT22;15925;51.222;5.678;2022-12-05T01:26:09;4.10;99.90
28773;DHT22;15925;51.222;5.678;2022-12-05T01:28:37;4.10;99.90
28773;DHT22;15925;51.222;5.678;2022-12-05T01:31:04;4.10;99.90
28773;DHT22;15925;51.222;5.678;2022-12-05T01:33:31;4.10;99.90
28773;DHT22;15925;51.222;5.678;2022-12-05T01:35:57;4.10;99.90
28773;DHT22;15925;51.222;5.678;2022-12-05T01:38:23;4.00;99.90
28773;DHT22;15925;51.222;5.678;2022-12-05T01:40:49;4.10;99.90
28773;DHT22;15925;51.222;5.678;2022-12-05T01:43:17;4.00;99.90
28773;DHT22;15925;51.222;5.678;2022-12-05T01:45:44;4.00;99.90
28773;DHT22;15925;51.222;5.678;2022-12-05T01:48:17;3.90;99.90
28773;DHT22;15925;51.222;5.678;2022-12-05T01:50:45;3.90;99.90
28773;DHT22;15925;51.222;5.678;2022-12-05T01:53:11;4.00;99.90
28773;DHT22;15925;51.222;5.678;2022-12-05T01:55:38;3.90;99.90
28773;DHT22;15925;51.222;5.678;2022-12-05T01:58:05;3.90;99.90
28773;DHT22;15925;51.222;5.678;2022-12-05T02:00:32;4.00;99.90
28773;DHT22;15925;51.222;5.678;2022-12-05T02:03:03;3.90;99.90
28773;DHT22;15925;51.222;5.678;2022-12-05T02:05:32;3.90;99.90
28773;DHT22;15925;51.222;5.678;2022-12-05T02:08:00;4.00;99.90
28773;DHT22;15925;51.222;5.678;2022-12-05T02:10:30;4.00;99.90
28773;DHT22;15925;51.222;5.678;2022-12-05T02:13:05;4.00;99.90
28773;DHT22;15925;51.222;5.678;2022-12-05T02:15:35;3.90;99.90
28773;DHT22;15925;51.222;5.678;2022-12-05T02:18:27;3.90;99.90
28773;DHT22;15925;51.222;5.678;2022-12-05T02:27:15;4.10;99.90
28773;DHT22;15925;51.222;5.678;2022-12-05T02:37:41;4.00;99.90
28773;DHT22;15925;51.222;5.678;2022-12-05T02:40:10;3.90;99.90
28773;DHT22;15925;51.222;5.678;2022-12-05T02:43:06;3.90;99.90
28773;DHT22;15925;51.222;5.678;2022-12-05T02:45:36;3.90;99.90
28773;DHT22;15925;51.222;5.678;2022-12-05T02:48:03;3.90;99.90
28773;DHT22;15925;51.222;5.678;2022-12-05T02:50:32;4.00;99.90
28773;DHT22;15925;51.222;5.678;2022-12-05T02:53:06;4.00;99.90
28773;DHT22;15925;51.222;5.678;2022-12-05T02:55:34;4.00;99.90
28773;DHT22;15925;51.222;5.678;2022-12-05T02:58:04;4.00;99.90
28773;DHT22;15925;51.222;5.678;2022-12-05T03:00:34;4.00;99.90
28773;DHT22;15925;51.222;5.678;2022-12-05T03:03:00;4.00;99.90
28773;DHT22;15925;51.222;5.678;2022-12-05T03:05:47;3.90;99.90
28773;DHT22;15925;51.222;5.678;2022-12-05T03:08:18;4.00;99.90
28773;DHT22;15925;51.222;5.678;2022-12-05T03:10:46;3.90;99.90
28773;DHT22;15925;51.222;5.678;2022-12-05T03:13:19;3.80;99.90
28773;DHT22;15925;51.222;5.678;2022-12-05T03:15:48;3.90;99.90
28773;DHT22;15925;51.222;5.678;2022-12-05T03:18:32;3.90;99.90
28773;DHT22;15925;51.222;5.678;2022-12-05T03:21:10;3.90;99.90
28773;DHT22;15925;51.222;5.678;2022-12-05T03:23:48;4.00;99.90
28773;DHT22;15925;51.222;5.678;2022-12-05T03:45:59;3.90;99.90
28773;DHT22;15925;51.222;5.678;2022-12-05T03:48:36;3.90;99.90
28773;DHT22;15925;51.222;5.678;2022-12-05T03:51:05;3.90;99.90
28773;DHT22;15925;51.222;5.678;2022-12-05T03:53:43;4.00;99.90
28773;DHT22;15925;51.222;5.678;2022-12-05T03:56:12;4.00;99.90
28773;DHT22;15925;51.222;5.678;2022-12-05T03:58:52;4.00;99.90
28773;DHT22;15925;51.222;5.678;2022-12-05T04:01:21;4.00;99.90
28773;DHT22;15925;51.222;5.678;2022-12-05T04:03:54;4.10;99.90
28773;DHT22;15925;51.222;5.678;2022-12-05T04:06:42;4.10;99.90
28773;DHT22;15925;51.222;5.678;2022-12-05T04:09:12;4.00;99.90
28773;DHT22;15925;51.222;5.678;2022-12-05T04:11:44;3.90;99.90
28773;DHT22;15925;51.222;5.678;2022-12-05T04:14:14;3.90;99.90
28773;DHT22;15925;51.222;5.678;2022-12-05T04:16:54;4.00;99.90
28773;DHT22;15925;51.222;5.678;2022-12-05T04:22:24;4.00;99.90
28773;DHT22;15925;51.222;5.678;2022-12-05T04:24:52;4.10;99.90
28773;DHT22;15925;51.222;5.678;2022-12-05T04:30:21;4.10;99.90
28773;DHT22;15925;51.222;5.678;2022-12-05T04:33:18;4.00;99.90
28773;DHT22;15925;51.222;5.678;2022-12-05T04:36:09;4.00;99.90
28773;DHT22;15925;51.222;5.678;2022-12-05T04:38:47;4.00;99.90
28773;DHT22;15925;51.222;5.678;2022-12-05T04:41:29;4.00;99.90
28773;DHT22;15925;51.222;5.678;2022-12-05T04:43:58;3.90;99.90
28773;DHT22;15925;51.222;5.678;2022-12-05T04:46:25;4.00;99.90
28773;DHT22;15925;51.222;5.678;2022-12-05T04:48:55;4.00;99.90
28773;DHT22;15925;51.222;5.678;2022-12-05T04:51:26;4.00;99.90
28773;DHT22;15925;51.222;5.678;2022-12-05T04:53:56;3.90;99.90
28773;DHT22;15925;51.222;5.678;2022-12-05T04:56:26;3.80;99.90
28773;DHT22;15925;51.222;5.678;2022-12-05T04:58:54;3.80;99.90
28773;DHT22;15925;51.222;5.678;2022-12-05T05:01:27;3.90;99.90
28773;DHT22;15925;51.222;5.678;2022-12-05T05:04:18;3.90;99.90
28773;DHT22;15925;51.222;5.678;2022-12-05T05:06:46;4.00;99.90
28773;DHT22;15925;51.222;5.678;2022-12-05T05:09:12;4.10;99.90
28773;DHT22;15925;51.222;5.678;2022-12-05T05:11:38;4.00;99.90
28773;DHT22;15925;51.222;5.678;2022-12-05T05:14:04;4.10;99.90
28773;DHT22;15925;51.222;5.678;2022-12-05T05:16:40;4.10;99.90
28773;DHT22;15925;51.222;5.678;2022-12-05T05:19:07;4.20;99.90
28773;DHT22;15925;51.222;5.678;2022-12-05T05:21:38;4.20;99.90
28773;DHT22;15925;51.222;5.678;2022-12-05T05:24:05;4.20;99.90
28773;DHT22;15925;51.222;5.678;2022-12-05T05:26:34;4.10;99.90
28773;DHT22;15925;51.222;5.678;2022-12-05T05:29:00;4.20;99.90
28773;DHT22;15925;51.222;5.678;2022-12-05T05:31:26;4.20;99.90
28773;DHT22;15925;51.222;5.678;2022-12-05T05:33:54;4.10;99.90
28773;DHT22;15925;51.222;5.678;2022-12-05T05:36:22;4.20;99.90
28773;DHT22;15925;51.222;5.678;2022-12-05T05:38:50;4.20;99.90
28773;DHT22;15925;51.222;5.678;2022-12-05T05:41:34;4.30;99.90
28773;DHT22;15925;51.222;5.678;2022-12-05T05:44:00;4.30;99.90
28773;DHT22;15925;51.222;5.678;2022-12-05T05:46:28;4.20;99.90
28773;DHT22;15925;51.222;5.678;2022-12-05T05:48:55;4.20;99.90
28773;DHT22;15925;51.222;5.678;2022-12-05T05:51:21;4.10;99.90
28773;DHT22;15925;51.222;5.678;2022-12-05T05:53:47;4.20;99.90
28773;DHT22;15925;51.222;5.678;2022-12-05T05:56:16;4.20;99.90
28773;DHT22;15925;51.222;5.678;2022-12-05T05:58:42;4.20;99.90
28773;DHT22;15925;51.222;5.678;2022-12-05T06:01:10;4.20;99.90
28773;DHT22;15925;51.222;5.678;2022-12-05T06:03:36;4.20;99.90
28773;DHT22;15925;51.222;5.678;2022-12-05T06:06:05;4.20;99.90
28773;DHT22;15925;51.222;5.678;2022-12-05T06:08:36;4.30;99.90
28773;DHT22;15925;51.222;5.678;2022-12-05T06:11:08;4.30;99.90
28773;DHT22;15925;51.222;5.678;2022-12-05T06:13:35;4.30;99.90
28773;DHT22;15925;51.222;5.678;2022-12-05T06:16:04;4.40;99.90
28773;DHT22;15925;51.222;5.678;2022-12-05T06:18:30;4.30;99.90
28773;DHT22;15925;51.222;5.678;2022-12-05T06:20:57;4.30;99.90
28773;DHT22;15925;51.222;5.678;2022-12-05T06:23:24;4.20;99.90
28773;DHT22;15925;51.222;5.678;2022-12-05T06:25:52;4.20;99.90
28773;DHT22;15925;51.222;5.678;2022-12-05T06:28:19;4.30;99.90
28773;DHT22;15925;51.222;5.678;2022-12-05T06:30:46;4.30;99.90
28773;DHT22;15925;51.222;5.678;2022-12-05T06:33:12;4.30;99.90
28773;DHT22;15925;51.222;5.678;2022-12-05T06:35:38;4.30;99.90
28773;DHT22;15925;51.222;5.678;2022-12-05T06:38:05;4.30;99.90
28773;DHT22;15925;51.222;5.678;2022-12-05T06:40:31;4.30;99.90
28773;DHT22;15925;51.222;5.678;2022-12-05T06:42:57;4.40;99.90
28773;DHT22;15925;51.222;5.678;2022-12-05T06:45:23;4.30;99.90
28773;DHT22;15925;51.222;5.678;2022-12-05T06:47:50;4.20;99.90
28773;DHT22;15925;51.222;5.678;2022-12-05T06:50:16;4.20;99.90
28773;DHT22;15925;51.222;5.678;2022-12-05T06:52:42;4.20;99.90
28773;DHT22;15925;51.222;5.678;2022-12-05T06:55:08;4.20;99.90
28773;DHT22;15925;51.222;5.678;2022-12-05T06:57:34;4.20;99.90
28773;DHT22;15925;51.222;5.678;2022-12-05T07:00:00;4.20;99.90
28773;DHT22;15925;51.222;5.678;2022-12-05T07:02:49;4.10;99.90
28773;DHT22;15925;51.222;5.678;2022-12-05T07:05:15;4.10;99.90
28773;DHT22;15925;51.222;5.678;2022-12-05T07:07:41;4.10;99.90
28773;DHT22;15925;51.222;5.678;2022-12-05T07:10:07;4.10;99.90
28773;DHT22;15925;51.222;5.678;2022-12-05T07:12:33;4.10;99.90
28773;DHT22;15925;51.222;5.678;2022-12-05T07:14:59;4.10;99.90
28773;DHT22;15925;51.222;5.678;2022-12-05T07:17:26;4.10;99.90
28773;DHT22;15925;51.222;5.678;2022-12-05T07:19:52;4.10;99.90
28773;DHT22;15925;51.222;5.678;2022-12-05T07:22:19;4.10;99.90
28773;DHT22;15925;51.222;5.678;2022-12-05T07:24:45;4.10;99.90
28773;DHT22;15925;51.222;5.678;2022-12-05T07:27:12;4.10;99.90
28773;DHT22;15925;51.222;5.678;2022-12-05T07:29:38;4.20;99.90
28773;DHT22;15925;51.222;5.678;2022-12-05T07:32:04;4.10;99.90
28773;DHT22;15925;51.222;5.678;2022-12-05T07:34:30;4.20;99.90
28773;DHT22;15925;51.222;5.678;2022-12-05T07:36:55;4.30;99.90
28773;DHT22;15925;51.222;5.678;2022-12-05T07:39:22;4.30;99.90
28773;DHT22;15925;51.222;5.678;2022-12-05T07:41:47;4.30;99.90
28773;DHT22;15925;51.222;5.678;2022-12-05T07:44:15;4.30;99.90
28773;DHT22;15925;51.222;5.678;2022-12-05T07:46:41;4.40;99.90
28773;DHT22;15925;51.222;5.678;2022-12-05T07:49:07;4.30;99.90
28773;DHT22;15925;51.222;5.678;2022-12-05T07:51:34;4.30;99.90
28773;DHT22;15925;51.222;5.678;2022-12-05T07:54:00;4.30;99.90
28773;DHT22;15925;51.222;5.678;2022-12-05T07:56:26;4.30;99.90
28773;DHT22;15925;51.222;5.678;2022-12-05T07:58:53;4.30;99.90
28773;DHT22;15925;51.222;5.678;2022-12-05T08:01:24;4.30;99.90
28773;DHT22;15925;51.222;5.678;2022-12-05T08:03:52;4.40;99.90
28773;DHT22;15925;51.222;5.678;2022-12-05T08:06:21;4.40;99.90
28773;DHT22;15925;51.222;5.678;2022-12-05T08:08:47;4.40;99.90
28773;DHT22;15925;51.222;5.678;2022-12-05T08:11:31;4.40;99.90
28773;DHT22;15925;51.222;5.678;2022-12-05T08:14:01;4.50;99.90
28773;DHT22;15925;51.222;5.678;2022-12-05T08:16:27;4.50;99.90
28773;DHT22;15925;51.222;5.678;2022-12-05T08:18:58;4.50;99.90
28773;DHT22;15925;51.222;5.678;2022-12-05T08:21:24;4.50;99.90
28773;DHT22;15925;51.222;5.678;2022-12-05T08:23:51;4.60;99.90
28773;DHT22;15925;51.222;5.678;2022-12-05T08:26:19;4.60;99.90
28773;DHT22;15925;51.222;5.678;2022-12-05T08:28:49;4.70;99.90
28773;DHT22;15925;51.222;5.678;2022-12-05T08:31:16;4.70;99.90
28773;DHT22;15925;51.222;5.678;2022-12-05T08:33:43;4.70;99.90
28773;DHT22;15925;51.222;5.678;2022-12-05T08:36:13;4.80;99.90
28773;DHT22;15925;51.222;5.678;2022-12-05T08:38:40;4.80;99.90
28773;DHT22;15925;51.222;5.678;2022-12-05T08:41:08;4.80;99.90
28773;DHT22;15925;51.222;5.678;2022-12-05T08:43:35;4.90;99.90
28773;DHT22;15925;51.222;5.678;2022-12-05T08:46:00;4.90;99.90
28773;DHT22;15925;51.222;5.678;2022-12-05T08:48:28;4.70;99.90
28773;DHT22;15925;51.222;5.678;2022-12-05T08:50:55;4.80;99.90
28773;DHT22;15925;51.222;5.678;2022-12-05T08:53:21;4.90;99.90
28773;DHT22;15925;51.222;5.678;2022-12-05T08:55:46;4.90;99.90
28773;DHT22;15925;51.222;5.678;2022-12-05T08:58:12;4.80;99.90
28773;DHT22;15925;51.222;5.678;2022-12-05T09:00:39;4.70;99.90
28773;DHT22;15925;51.222;5.678;2022-12-05T09:03:05;4.80;99.90
28773;DHT22;15925;51.222;5.678;2022-12-05T09:05:31;4.70;99.90
28773;DHT22;15925;51.222;5.678;2022-12-05T09:07:57;4.60;99.90
28773;DHT22;15925;51.222;5.678;2022-12-05T09:10:25;4.50;99.90
28773;DHT22;15925;51.222;5.678;2022-12-05T09:12:51;4.50;99.90
28773;DHT22;15925;51.222;5.678;2022-12-05T09:15:17;4.60;99.90
28773;DHT22;15925;51.222;5.678;2022-12-05T09:17:44;4.60;99.90
28773;DHT22;15925;51.222;5.678;2022-12-05T09:20:11;4.60;99.90
28773;DHT22;15925;51.222;5.678;2022-12-05T09:22:39;4.50;99.90
28773;DHT22;15925;51.222;5.678;2022-12-05T09:25:05;4.60;99.90
28773;DHT22;15925;51.222;5.678;2022-12-05T09:27:31;4.60;99.90
28773;DHT22;15925;51.222;5.678;2022-12-05T09:29:57;4.40;99.90
28773;DHT22;15925;51.222;5.678;2022-12-05T09:32:23;4.50;99.90
28773;DHT22;15925;51.222;5.678;2022-12-05T09:34:48;4.50;99.90
28773;DHT22;15925;51.222;5.678;2022-12-05T09:37:15;4.60;99.90
28773;DHT22;15925;51.222;5.678;2022-12-05T09:39:45;4.60;99.90
28773;DHT22;15925;51.222;5.678;2022-12-05T09:47:41;4.70;99.90
28773;DHT22;15925;51.222;5.678;2022-12-05T09:50:33;4.70;99.90
28773;DHT22;15925;51.222;5.678;2022-12-05T09:53:10;4.70;99.90
28773;DHT22;15925;51.222;5.678;2022-12-05T09:56:03;4.80;99.90
28773;DHT22;15925;51.222;5.678;2022-12-05T09:58:42;4.60;99.90
28773;DHT22;15925;51.222;5.678;2022-12-05T10:04:39;4.70;99.90
28773;DHT22;15925;51.222;5.678;2022-12-05T10:15:08;4.60;99.90
28773;DHT22;15925;51.222;5.678;2022-12-05T10:17:43;4.60;99.90
28773;DHT22;15925;51.222;5.678;2022-12-05T10:20:16;4.60;99.90
28773;DHT22;15925;51.222;5.678;2022-12-05T10:25:17;4.60;99.90
28773;DHT22;15925;51.222;5.678;2022-12-05T10:27:50;4.60;99.90
28773;DHT22;15925;51.222;5.678;2022-12-05T10:30:22;4.80;99.90
28773;DHT22;15925;51.222;5.678;2022-12-05T10:32:59;4.80;99.90
28773;DHT22;15925;51.222;5.678;2022-12-05T10:35:29;4.90;99.90
28773;DHT22;15925;51.222;5.678;2022-12-05T10:37:59;4.90;99.90
28773;DHT22;15925;51.222;5.678;2022-12-05T10:40:36;4.80;99.90
28773;DHT22;15925;51.222;5.678;2022-12-05T10:43:04;4.90;99.90
28773;DHT22;15925;51.222;5.678;2022-12-05T10:45:30;4.90;99.90
28773;DHT22;15925;51.222;5.678;2022-12-05T10:47:57;4.90;99.90
28773;DHT22;15925;51.222;5.678;2022-12-05T10:50:31;4.90;99.90
28773;DHT22;15925;51.222;5.678;2022-12-05T10:53:01;5.00;99.90
28773;DHT22;15925;51.222;5.678;2022-12-05T10:55:40;4.90;99.90
28773;DHT22;15925;51.222;5.678;2022-12-05T10:58:17;4.90;99.90
28773;DHT22;15925;51.222;5.678;2022-12-05T11:00:50;4.90;99.90
28773;DHT22;15925;51.222;5.678;2022-12-05T11:03:39;4.90;99.90
28773;DHT22;15925;51.222;5.678;2022-12-05T11:06:24;5.00;99.90
28773;DHT22;15925;51.222;5.678;2022-12-05T11:08:52;4.90;99.90
28773;DHT22;15925;51.222;5.678;2022-12-05T11:11:25;4.90;99.90
28773;DHT22;15925;51.222;5.678;2022-12-05T11:16:50;5.00;99.90
28773;DHT22;15925;51.222;5.678;2022-12-05T11:19:23;4.80;99.90
28773;DHT22;15925;51.222;5.678;2022-12-05T11:21:51;4.90;99.90
28773;DHT22;15925;51.222;5.678;2022-12-05T11:26:46;4.80;99.90
28773;DHT22;15925;51.222;5.678;2022-12-05T11:29:51;4.80;99.90
28773;DHT22;15925;51.222;5.678;2022-12-05T11:32:23;4.70;99.90
28773;DHT22;15925;51.222;5.678;2022-12-05T11:35:00;4.70;99.90
28773;DHT22;15925;51.222;5.678;2022-12-05T11:37:32;4.80;99.90
28773;DHT22;15925;51.222;5.678;2022-12-05T11:40:01;4.80;99.90
28773;DHT22;15925;51.222;5.678;2022-12-05T11:42:34;4.80;99.90
28773;DHT22;15925;51.222;5.678;2022-12-05T11:45:16;4.80;99.90
28773;DHT22;15925;51.222;5.678;2022-12-05T12:12:59;4.50;99.90
28773;DHT22;15925;51.222;5.678;2022-12-05T12:15:48;4.50;99.90
28773;DHT22;15925;51.222;5.678;2022-12-05T12:23:36;4.50;99.90
28773;DHT22;15925;51.222;5.678;2022-12-05T12:26:50;4.50;99.90
28773;DHT22;15925;51.222;5.678;2022-12-05T12:35:26;4.60;99.90
28773;DHT22;15925;51.222;5.678;2022-12-05T12:38:13;4.50;99.90
28773;DHT22;15925;51.222;5.678;2022-12-05T12:40:54;4.50;99.90
28773;DHT22;15925;51.222;5.678;2022-12-05T12:51:52;4.60;99.90
28773;DHT22;15925;51.222;5.678;2022-12-05T12:57:08;4.60;99.90
28773;DHT22;15925;51.222;5.678;2022-12-05T13:02:42;4.80;99.90
28773;DHT22;15925;51.222;5.678;2022-12-05T13:08:25;4.90;99.90
28773;DHT22;15925;51.222;5.678;2022-12-05T13:10:54;4.80;99.90
28773;DHT22;15925;51.222;5.678;2022-12-05T13:13:26;4.80;99.90
28773;DHT22;15925;51.222;5.678;2022-12-05T13:15:58;4.70;99.90
28773;DHT22;15925;51.222;5.678;2022-12-05T13:18:25;4.90;99.90
28773;DHT22;15925;51.222;5.678;2022-12-05T13:20:54;4.90;99.90
28773;DHT22;15925;51.222;5.678;2022-12-05T13:23:23;4.80;99.90
28773;DHT22;15925;51.222;5.678;2022-12-05T13:25:52;4.80;99.90
28773;DHT22;15925;51.222;5.678;2022-12-05T13:28:34;4.80;99.90
28773;DHT22;15925;51.222;5.678;2022-12-05T13:31:07;4.80;99.90
28773;DHT22;15925;51.222;5.678;2022-12-05T13:36:13;4.90;99.90
28773;DHT22;15925;51.222;5.678;2022-12-05T13:39:18;4.90;99.90
28773;DHT22;15925;51.222;5.678;2022-12-05T13:42:04;4.80;99.90
28773;DHT22;15925;51.222;5.678;2022-12-05T13:44:48;4.80;99.90
28773;DHT22;15925;51.222;5.678;2022-12-05T13:52:49;4.90;99.90
28773;DHT22;15925;51.222;5.678;2022-12-05T13:57:52;4.80;99.90
28773;DHT22;15925;51.222;5.678;2022-12-05T14:00:28;4.90;99.90
28773;DHT22;15925;51.222;5.678;2022-12-05T14:03:06;4.90;99.90
28773;DHT22;15925;51.222;5.678;2022-12-05T14:05:42;4.90;99.90
28773;DHT22;15925;51.222;5.678;2022-12-05T14:15:49;4.90;99.90
28773;DHT22;15925;51.222;5.678;2022-12-05T14:18:54;5.00;99.90
28773;DHT22;15925;51.222;5.678;2022-12-05T14:21:40;5.00;99.90
28773;DHT22;15925;51.222;5.678;2022-12-05T14:25:12;5.00;99.90
28773;DHT22;15925;51.222;5.678;2022-12-05T14:30:03;5.00;99.90
28773;DHT22;15925;51.222;5.678;2022-12-05T14:32:39;5.00;99.90
28773;DHT22;15925;51.222;5.678;2022-12-05T14:35:31;5.00;99.90
28773;DHT22;15925;51.222;5.678;2022-12-05T14:38:05;5.00;99.90
28773;DHT22;15925;51.222;5.678;2022-12-05T14:40:38;5.00;99.90
28773;DHT22;15925;51.222;5.678;2022-12-05T14:43:26;5.10;99.90
28773;DHT22;15925;51.222;5.678;2022-12-05T14:45:59;5.00;99.90
28773;DHT22;15925;51.222;5.678;2022-12-05T14:48:35;5.00;99.90
28773;DHT22;15925;51.222;5.678;2022-12-05T14:51:42;5.00;99.90
28773;DHT22;15925;51.222;5.678;2022-12-05T14:54:13;5.00;99.90
28773;DHT22;15925;51.222;5.678;2022-12-05T14:56:42;5.00;99.90
28773;DHT22;15925;51.222;5.678;2022-12-05T15:01:47;5.00;99.90
28773;DHT22;15925;51.222;5.678;2022-12-05T15:07:02;4.90;99.90
28773;DHT22;15925;51.222;5.678;2022-12-05T15:10:06;5.00;99.90
28773;DHT22;15925;51.222;5.678;2022-12-05T15:17:52;5.00;99.90
28773;DHT22;15925;51.222;5.678;2022-12-05T15:20:22;4.90;99.90
28773;DHT22;15925;51.222;5.678;2022-12-05T15:22:48;4.90;99.90
28773;DHT22;15925;51.222;5.678;2022-12-05T15:25:24;4.90;99.90
28773;DHT22;15925;51.222;5.678;2022-12-05T15:27:59;4.90;99.90
28773;DHT22;15925;51.222;5.678;2022-12-05T15:30:26;5.00;99.90
28773;DHT22;15925;51.222;5.678;2022-12-05T15:32:52;4.90;99.90
28773;DHT22;15925;51.222;5.678;2022-12-05T15:35:18;4.90;99.90
28773;DHT22;15925;51.222;5.678;2022-12-05T15:38:07;4.90;99.90
28773;DHT22;15925;51.222;5.678;2022-12-05T15:40:38;4.90;99.90
28773;DHT22;15925;51.222;5.678;2022-12-05T15:48:52;4.90;99.90
28773;DHT22;15925;51.222;5.678;2022-12-05T15:51:20;4.90;99.90
28773;DHT22;15925;51.222;5.678;2022-12-05T15:54:14;4.80;99.90
28773;DHT22;15925;51.222;5.678;2022-12-05T15:59:13;4.80;99.90
28773;DHT22;15925;51.222;5.678;2022-12-05T16:01:48;4.80;99.90
28773;DHT22;15925;51.222;5.678;2022-12-05T16:04:30;4.80;99.90
28773;DHT22;15925;51.222;5.678;2022-12-05T16:07:00;4.80;99.90
28773;DHT22;15925;51.222;5.678;2022-12-05T16:09:31;4.80;99.90
28773;DHT22;15925;51.222;5.678;2022-12-05T16:12:13;4.80;99.90
28773;DHT22;15925;51.222;5.678;2022-12-05T16:14:40;4.80;99.90
28773;DHT22;15925;51.222;5.678;2022-12-05T16:17:07;4.80;99.90
28773;DHT22;15925;51.222;5.678;2022-12-05T16:19:38;4.80;99.90
28773;DHT22;15925;51.222;5.678;2022-12-05T16:24:58;4.90;99.90
28773;DHT22;15925;51.222;5.678;2022-12-05T16:27:28;4.90;99.90
28773;DHT22;15925;51.222;5.678;2022-12-05T16:30:25;4.90;99.90
28773;DHT22;15925;51.222;5.678;2022-12-05T16:35:44;4.80;99.90
28773;DHT22;15925;51.222;5.678;2022-12-05T16:48:44;4.90;99.90
28773;DHT22;15925;51.222;5.678;2022-12-05T16:51:24;4.90;99.90
28773;DHT22;15925;51.222;5.678;2022-12-05T16:53:52;5.00;99.90
28773;DHT22;15925;51.222;5.678;2022-12-05T16:56:32;4.90;99.90
28773;DHT22;15925;51.222;5.678;2022-12-05T16:59:02;4.90;99.90
28773;DHT22;15925;51.222;5.678;2022-12-05T17:01:29;4.90;99.90
28773;DHT22;15925;51.222;5.678;2022-12-05T17:03:55;4.90;99.90
28773;DHT22;15925;51.222;5.678;2022-12-05T17:06:23;4.90;99.90
28773;DHT22;15925;51.222;5.678;2022-12-05T17:08:51;4.90;99.90
28773;DHT22;15925;51.222;5.678;2022-12-05T17:11:20;4.90;99.90
28773;DHT22;15925;51.222;5.678;2022-12-05T17:13:47;4.90;99.90
28773;DHT22;15925;51.222;5.678;2022-12-05T17:16:16;4.90;99.90
28773;DHT22;15925;51.222;5.678;2022-12-05T17:18:43;4.90;99.90
28773;DHT22;15925;51.222;5.678;2022-12-05T17:21:16;4.90;99.90
28773;DHT22;15925;51.222;5.678;2022-12-05T17:23:43;4.90;99.90
28773;DHT22;15925;51.222;5.678;2022-12-05T17:26:12;4.90;99.90
28773;DHT22;15925;51.222;5.678;2022-12-05T17:28:39;4.90;99.90
28773;DHT22;15925;51.222;5.678;2022-12-05T17:31:05;4.90;99.90
28773;DHT22;15925;51.222;5.678;2022-12-05T17:33:31;4.90;99.90
28773;DHT22;15925;51.222;5.678;2022-12-05T17:35:59;4.90;99.90
28773;DHT22;15925;51.222;5.678;2022-12-05T17:38:24;4.90;99.90
28773;DHT22;15925;51.222;5.678;2022-12-05T17:40:50;4.80;99.90
28773;DHT22;15925;51.222;5.678;2022-12-05T17:43:16;4.90;99.90
28773;DHT22;15925;51.222;5.678;2022-12-05T17:45:42;4.90;99.90
28773;DHT22;15925;51.222;5.678;2022-12-05T17:48:11;4.80;99.90
28773;DHT22;15925;51.222;5.678;2022-12-05T17:50:42;4.80;99.90
28773;DHT22;15925;51.222;5.678;2022-12-05T17:53:14;4.90;99.90
28773;DHT22;15925;51.222;5.678;2022-12-05T17:55:40;4.80;99.90
28773;DHT22;15925;51.222;5.678;2022-12-05T17:58:07;4.80;99.90
28773;DHT22;15925;51.222;5.678;2022-12-05T18:00:33;4.80;99.90
28773;DHT22;15925;51.222;5.678;2022-12-05T18:02:59;4.80;99.90
28773;DHT22;15925;51.222;5.678;2022-12-05T18:05:25;4.80;99.90
28773;DHT22;15925;51.222;5.678;2022-12-05T18:07:51;4.90;99.90
28773;DHT22;15925;51.222;5.678;2022-12-05T18:10:19;4.90;99.90
28773;DHT22;15925;51.222;5.678;2022-12-05T18:12:47;4.90;99.90
28773;DHT22;15925;51.222;5.678;2022-12-05T18:15:14;4.90;99.90
28773;DHT22;15925;51.222;5.678;2022-12-05T18:17:40;4.90;99.90
28773;DHT22;15925;51.222;5.678;2022-12-05T18:20:08;4.90;99.90
28773;DHT22;15925;51.222;5.678;2022-12-05T18:22:34;4.90;99.90
28773;DHT22;15925;51.222;5.678;2022-12-05T18:25:02;5.00;99.90
28773;DHT22;15925;51.222;5.678;2022-12-05T18:27:28;4.90;99.90
28773;DHT22;15925;51.222;5.678;2022-12-05T18:29:54;4.90;99.90
28773;DHT22;15925;51.222;5.678;2022-12-05T18:32:20;4.90;99.90
28773;DHT22;15925;51.222;5.678;2022-12-05T18:34:46;4.90;99.90
28773;DHT22;15925;51.222;5.678;2022-12-05T18:37:12;4.90;99.90
28773;DHT22;15925;51.222;5.678;2022-12-05T18:39:38;4.90;99.90
28773;DHT22;15925;51.222;5.678;2022-12-05T18:42:04;5.00;99.90
28773;DHT22;15925;51.222;5.678;2022-12-05T18:44:30;5.00;99.90
28773;DHT22;15925;51.222;5.678;2022-12-05T18:46:56;5.00;99.90
28773;DHT22;15925;51.222;5.678;2022-12-05T18:49:22;5.00;99.90
28773;DHT22;15925;51.222;5.678;2022-12-05T18:51:49;5.00;99.90
28773;DHT22;15925;51.222;5.678;2022-12-05T18:54:15;5.00;99.90
28773;DHT22;15925;51.222;5.678;2022-12-05T18:56:41;4.90;99.90
28773;DHT22;15925;51.222;5.678;2022-12-05T18:59:15;5.00;99.90
28773;DHT22;15925;51.222;5.678;2022-12-05T19:01:42;4.90;99.90